Time;durP1;ratioP1;P1;durP2;ratioP2;P2;SDS_P1;SDS_P2;PMS_P1;PMS_P2;Temp;Humidity;BMP_temperature;BMP_pressure;BME280_temperature;BME280_humidity;BME280_pressure;Samples;Min_cycle;Max_cycle;Signal;HPM_P1;HPM_P2
2022/05/30 00:01:52;;;;;;;;;;;;;;;;;;5115523;28;19915;-72
2022/05/30 00:04:18;;;;;;;;;;;;;;;;;;5115196;28;19908;-71
2022/05/30 00:06:44;;;;;;;;;;;;;;;;;;5096534;28;19908;-72
2022/05/30 00:09:13;;;;;;;;;;;;;;;;;;5115062;28;20010;-72
2022/05/30 00:11:39;;;;;;;;;;;;;;;;;;5096626;28;20060;-71
2022/05/30 00:14:06;;;;;;;;;;;;;;;;;;5115030;28;19968;-70
2022/05/30 00:16:33;;;;;;;;;;;;;;;;;;5114837;28;19908;-71
2022/05/30 00:18:59;;;;;;;;;;;;;;;;;;5114961;28;19912;-71
2022/05/30 00:21:25;;;;;;;;;;;;;;;;;;5113871;28;19908;-72
2022/05/30 00:23:53;;;;;;;;;;;;;;;;;;5114452;28;19935;-72
2022/05/30 00:26:19;;;;;;;;;;;;;;;;;;5114420;28;19920;-72
2022/05/30 00:28:45;;;;;;;;;;;;;;;;;;5114490;28;20002;-70
2022/05/30 00:31:11;;;;;;;;;;;;;;;;;;5114491;28;20345;-71
2022/05/30 00:33:37;;;;;;;;;;;;;;;;;;5114452;28;19908;-70
2022/05/30 00:36:03;;;;;;;;;;;;;;;;;;5114683;28;19998;-71
2022/05/30 00:38:28;;;;;;;;;;;;;;;;;;5114333;28;20331;-71
2022/05/30 00:40:54;;;;;;;;;;;;;;;;;;5114322;28;19912;-72
2022/05/30 00:43:20;;;;;;;;;;;;;;;;;;5096089;28;19919;-71
2022/05/30 00:45:46;;;;;;;;;;;;;;;;;;5114835;28;20272;-71
2022/05/30 00:48:12;;;;;;;;;;;;;;;;;;5114205;28;19918;-73
2022/05/30 00:50:38;;;;;;;;;;;;;;;;;;5114234;28;19915;-71
2022/05/30 00:53:04;;;;;;;;;;;;;;;;;;5114793;28;20347;-71
2022/05/30 00:55:30;;;;;;;;;;;;;;;;;;5114484;28;19914;-70
2022/05/30 00:57:55;;;;;;;;;;;;;;;;;;5095929;28;20002;-71
2022/05/30 01:00:21;;;;;;;;;;;;;;;;;;5114677;28;19914;-71
2022/05/30 01:08:16;;;;;;;;;;;;;;;;;;5113782;28;19919;-71
2022/05/30 01:10:42;;;;;;;;;;;;;;;;;;5114034;28;19972;-72
2022/05/30 01:13:08;;;;;;;;;;;;;;;;;;5095726;28;19915;-71
2022/05/30 01:15:36;;;;;;;;;;;;;;;;;;5114137;28;19907;-71
2022/05/30 01:18:02;;;;;;;;;;;;;;;;;;5114527;28;20264;-71
2022/05/30 01:20:28;;;;;;;;;;;;;;;;;;5113969;28;19914;-72
2022/05/30 01:22:54;;;;;;;;;;;;;;;;;;5114167;28;19918;-71
2022/05/30 01:25:20;;;;;;;;;;;;;;;;;;5113657;28;19919;-70
2022/05/30 01:27:46;;;;;;;;;;;;;;;;;;5114396;28;20409;-72
2022/05/30 01:30:11;;;;;;;;;;;;;;;;;;5113859;28;19922;-71
2022/05/30 01:32:37;;;;;;;;;;;;;;;;;;5114237;28;19959;-70
2022/05/30 01:35:03;;;;;;;;;;;;;;;;;;5117871;28;19998;-71
2022/05/30 01:37:29;;;;;;;;;;;;;;;;;;5118109;28;19908;-71
2022/05/30 01:39:55;;;;;;;;;;;;;;;;;;5117775;28;20315;-71
2022/05/30 01:42:21;;;;;;;;;;;;;;;;;;5117737;28;19959;-70
2022/05/30 01:44:47;;;;;;;;;;;;;;;;;;5117659;28;19915;-71
2022/05/30 01:47:13;;;;;;;;;;;;;;;;;;5117866;28;19907;-70
2022/05/30 01:49:39;;;;;;;;;;;;;;;;;;5117761;28;19955;-71
2022/05/30 01:52:05;;;;;;;;;;;;;;;;;;5117527;28;19914;-71
2022/05/30 01:54:31;;;;;;;;;;;;;;;;;;5118064;28;20397;-72
2022/05/30 01:56:57;;;;;;;;;;;;;;;;;;5098891;28;19961;-71
2022/05/30 01:59:23;;;;;;;;;;;;;;;;;;5117401;28;20306;-71
2022/05/30 02:01:49;;;;;;;;;;;;;;;;;;5117324;28;19915;-71
2022/05/30 02:04:15;;;;;;;;;;;;;;;;;;5117311;28;19907;-71
2022/05/30 02:06:41;;;;;;;;;;;;;;;;;;5117200;28;19912;-71
2022/05/30 02:09:07;;;;;;;;;;;;;;;;;;5117419;28;19961;-70
2022/05/30 02:11:33;;;;;;;;;;;;;;;;;;5117186;28;19951;-71
2022/05/30 02:13:59;;;;;;;;;;;;;;;;;;5117659;28;19907;-72
2022/05/30 02:19:09;;;;;;;;;;;;;;;;;;5116770;28;19956;-72
2022/05/30 02:21:35;;;;;;;;;;;;;;;;;;5117022;28;20329;-70
2022/05/30 02:24:01;;;;;;;;;;;;;;;;;;5117503;28;20252;-71
2022/05/30 02:26:27;;;;;;;;;;;;;;;;;;5116793;28;19920;-72
2022/05/30 02:28:53;;;;;;;;;;;;;;;;;;5117102;28;20010;-70
2022/05/30 02:31:19;;;;;;;;;;;;;;;;;;5116854;28;19951;-72
2022/05/30 02:36:44;;;;;;;;;;;;;;;;;;5116794;28;20283;-72
2022/05/30 02:39:09;;;;;;;;;;;;;;;;;;5116612;28;19952;-71
2022/05/30 02:41:35;;;;;;;;;;;;;;;;;;5117154;28;19907;-70
2022/05/30 02:44:01;;;;;;;;;;;;;;;;;;5116459;28;19952;-70
2022/05/30 02:46:27;;;;;;;;;;;;;;;;;;5115797;28;20028;-71
2022/05/30 02:48:53;;;;;;;;;;;;;;;;;;5116394;28;19919;-70
2022/05/30 02:51:19;;;;;;;;;;;;;;;;;;5116671;28;19907;-72
2022/05/30 02:53:45;;;;;;;;;;;;;;;;;;5116299;28;19908;-72
2022/05/30 02:56:11;;;;;;;;;;;;;;;;;;5116860;28;19912;-70
2022/05/30 02:58:37;;;;;;;;;;;;;;;;;;5097965;28;20003;-71
2022/05/30 03:01:02;;;;;;;;;;;;;;;;;;5116791;28;19908;-71
2022/05/30 03:03:28;;;;;;;;;;;;;;;;;;5116444;28;19908;-70
2022/05/30 03:05:54;;;;;;;;;;;;;;;;;;5116400;28;20006;-72
2022/05/30 03:08:20;;;;;;;;;;;;;;;;;;5115984;28;19915;-70
2022/05/30 03:10:46;;;;;;;;;;;;;;;;;;5116593;28;20348;-71
2022/05/30 03:13:12;;;;;;;;;;;;;;;;;;5115924;28;20041;-71
2022/05/30 03:15:38;;;;;;;;;;;;;;;;;;5115841;28;19960;-71
2022/05/30 03:18:04;;;;;;;;;;;;;;;;;;5097589;28;19908;-70
2022/05/30 03:20:30;;;;;;;;;;;;;;;;;;5116401;28;19915;-71
2022/05/30 03:22:56;;;;;;;;;;;;;;;;;;5116039;28;19914;-71
2022/05/30 03:25:22;;;;;;;;;;;;;;;;;;5115541;28;19920;-71
2022/05/30 03:27:48;;;;;;;;;;;;;;;;;;5115869;28;20267;-70
2022/05/30 03:30:14;;;;;;;;;;;;;;;;;;5097375;28;19915;-71
2022/05/30 03:32:41;;;;;;;;;;;;;;;;;;5116129;28;19907;-71
2022/05/30 03:35:07;;;;;;;;;;;;;;;;;;5115510;28;19908;-70
2022/05/30 03:37:32;;;;;;;;;;;;;;;;;;5115471;28;19908;-71
2022/05/30 03:39:58;;;;;;;;;;;;;;;;;;5097103;28;19908;-71
2022/05/30 03:42:24;;;;;;;;;;;;;;;;;;5097042;28;19907;-71
2022/05/30 03:44:50;;;;;;;;;;;;;;;;;;5115927;28;19915;-71
2022/05/30 03:47:18;;;;;;;;;;;;;;;;;;5115282;28;19908;-70
2022/05/30 03:49:43;;;;;;;;;;;;;;;;;;5115730;28;20352;-70
2022/05/30 03:52:10;;;;;;;;;;;;;;;;;;5115169;28;19908;-71
2022/05/30 03:54:36;;;;;;;;;;;;;;;;;;5115444;28;19908;-70
2022/05/30 03:57:03;;;;;;;;;;;;;;;;;;5114930;28;19908;-71
2022/05/30 03:59:29;;;;;;;;;;;;;;;;;;5115344;28;19914;-70
2022/05/30 04:01:54;;;;;;;;;;;;;;;;;;5114972;28;19912;-70
2022/05/30 04:04:20;;;;;;;;;;;;;;;;;;5114924;28;19912;-71
2022/05/30 04:06:46;;;;;;;;;;;;;;;;;;5114926;28;19914;-71
2022/05/30 04:09:12;;;;;;;;;;;;;;;;;;5114793;28;19959;-71
2022/05/30 04:11:38;;;;;;;;;;;;;;;;;;5115132;28;20006;-71
2022/05/30 04:14:04;;;;;;;;;;;;;;;;;;5114876;28;20367;-70
2022/05/30 04:16:30;;;;;;;;;;;;;;;;;;5096395;28;20403;-71
2022/05/30 04:18:56;;;;;;;;;;;;;;;;;;5115000;28;19956;-72
2022/05/30 04:21:22;;;;;;;;;;;;;;;;;;5096408;28;20268;-70
2022/05/30 04:23:48;;;;;;;;;;;;;;;;;;5114665;28;20429;-71
2022/05/30 04:26:14;;;;;;;;;;;;;;;;;;5114206;28;19924;-71
2022/05/30 04:28:40;;;;;;;;;;;;;;;;;;5114513;28;20097;-71
2022/05/30 04:31:06;;;;;;;;;;;;;;;;;;5114522;28;19908;-71
2022/05/30 04:33:33;;;;;;;;;;;;;;;;;;5114805;28;19908;-71
2022/05/30 04:35:58;;;;;;;;;;;;;;;;;;5114436;28;19986;-71
2022/05/30 04:38:24;;;;;;;;;;;;;;;;;;5114406;28;19908;-71
2022/05/30 04:40:50;;;;;;;;;;;;;;;;;;5114928;28;19950;-71
2022/05/30 04:43:16;;;;;;;;;;;;;;;;;;5114317;28;19911;-72
2022/05/30 04:45:42;;;;;;;;;;;;;;;;;;5114867;28;19968;-71
2022/05/30 04:48:08;;;;;;;;;;;;;;;;;;5114516;28;19907;-71
2022/05/30 04:50:34;;;;;;;;;;;;;;;;;;5114208;28;20283;-71
2022/05/30 04:53:00;;;;;;;;;;;;;;;;;;5114761;28;19908;-70
2022/05/30 04:55:26;;;;;;;;;;;;;;;;;;5114157;28;19933;-70
2022/05/30 04:57:52;;;;;;;;;;;;;;;;;;5114203;28;19955;-70
2022/05/30 05:00:18;;;;;;;;;;;;;;;;;;5095857;28;19908;-72
2022/05/30 05:02:44;;;;;;;;;;;;;;;;;;5114123;28;20394;-71
2022/05/30 05:05:10;;;;;;;;;;;;;;;;;;5114443;28;19915;-71
2022/05/30 05:07:36;;;;;;;;;;;;;;;;;;5114481;28;20356;-70
2022/05/30 05:10:02;;;;;;;;;;;;;;;;;;5100042;28;20375;-71
2022/05/30 05:12:28;;;;;;;;;;;;;;;;;;5118318;28;19908;-71
2022/05/30 05:14:53;;;;;;;;;;;;;;;;;;5118284;28;20418;-71
2022/05/30 05:17:21;;;;;;;;;;;;;;;;;;5118196;28;19958;-72
2022/05/30 05:19:47;;;;;;;;;;;;;;;;;;5118754;28;19908;-71
2022/05/30 05:22:13;;;;;;;;;;;;;;;;;;5118102;28;19914;-71
2022/05/30 05:24:39;;;;;;;;;;;;;;;;;;5118686;28;20292;-72
2022/05/30 05:27:05;;;;;;;;;;;;;;;;;;5117890;28;19952;-71
2022/05/30 05:29:31;;;;;;;;;;;;;;;;;;5117964;28;19915;-72
2022/05/30 05:31:59;;;;;;;;;;;;;;;;;;5118237;28;20253;-72
2022/05/30 05:34:26;;;;;;;;;;;;;;;;;;5117896;28;19908;-70
2022/05/30 05:36:52;;;;;;;;;;;;;;;;;;5099362;28;20343;-71
2022/05/30 05:39:18;;;;;;;;;;;;;;;;;;5118392;28;19908;-71
2022/05/30 05:41:44;;;;;;;;;;;;;;;;;;5117693;28;20433;-71
2022/05/30 05:44:10;;;;;;;;;;;;;;;;;;5117706;28;19907;-71
2022/05/30 05:46:36;;;;;;;;;;;;;;;;;;5117621;28;19908;-71
2022/05/30 05:49:01;;;;;;;;;;;;;;;;;;5118114;28;20264;-71
2022/05/30 05:51:27;;;;;;;;;;;;;;;;;;5117594;28;20314;-71
2022/05/30 05:53:53;;;;;;;;;;;;;;;;;;5117494;28;19915;-71
2022/05/30 05:56:19;;;;;;;;;;;;;;;;;;5118085;28;20006;-71
2022/05/30 05:58:45;;;;;;;;;;;;;;;;;;5117420;28;19995;-72
2022/05/30 06:01:11;;;;;;;;;;;;;;;;;;5117717;28;19915;-72
2022/05/30 06:03:37;;;;;;;;;;;;;;;;;;5117649;28;19908;-72
2022/05/30 06:06:03;;;;;;;;;;;;;;;;;;5117324;28;19915;-71
2022/05/30 06:08:29;;;;;;;;;;;;;;;;;;5117471;28;19912;-71
2022/05/30 06:11:11;;;;;;;;;;;;;;;;;;5117042;28;20379;-71
2022/05/30 06:13:37;;;;;;;;;;;;;;;;;;5116518;28;19911;-71
2022/05/30 06:16:03;;;;;;;;;;;;;;;;;;5116630;28;19980;-72
2022/05/30 06:18:29;;;;;;;;;;;;;;;;;;5117066;28;20268;-71
2022/05/30 06:20:55;;;;;;;;;;;;;;;;;;5116957;28;19915;-71
2022/05/30 06:23:21;;;;;;;;;;;;;;;;;;5117239;28;19943;-71
2022/05/30 06:25:47;;;;;;;;;;;;;;;;;;5116706;28;19920;-71
2022/05/30 06:28:12;;;;;;;;;;;;;;;;;;5117075;28;19908;-72
2022/05/30 06:30:38;;;;;;;;;;;;;;;;;;5117134;28;19915;-71
2022/05/30 06:33:04;;;;;;;;;;;;;;;;;;5116763;28;19908;-71
2022/05/30 06:35:30;;;;;;;;;;;;;;;;;;5117289;28;20336;-73
2022/05/30 06:37:56;;;;;;;;;;;;;;;;;;5116961;28;19935;-72
2022/05/30 06:40:22;;;;;;;;;;;;;;;;;;5116935;28;20271;-73
2022/05/30 06:42:48;;;;;;;;;;;;;;;;;;5116601;28;20313;-71
2022/05/30 06:45:14;;;;;;;;;;;;;;;;;;5116778;28;19992;-72
2022/05/30 06:47:40;;;;;;;;;;;;;;;;;;5116470;28;19954;-71
2022/05/30 06:50:06;;;;;;;;;;;;;;;;;;5116634;28;19915;-73
2022/05/30 06:52:31;;;;;;;;;;;;;;;;;;5116660;28;20241;-72
2022/05/30 06:55:00;;;;;;;;;;;;;;;;;;5115257;28;19908;-76
2022/05/30 07:00:11;;;;;;;;;;;;;;;;;;5113874;28;19969;-75
2022/05/30 07:02:37;;;;;;;;;;;;;;;;;;5115992;28;19908;-77
2022/05/30 07:05:03;;;;;;;;;;;;;;;;;;5116223;28;19908;-76
2022/05/30 07:07:29;;;;;;;;;;;;;;;;;;5087767;28;19920;-76
2022/05/30 07:09:55;;;;;;;;;;;;;;;;;;5105616;28;20353;-76
2022/05/30 07:12:21;;;;;;;;;;;;;;;;;;5097723;28;20014;-76
2022/05/30 07:14:46;;;;;;;;;;;;;;;;;;5097626;28;20291;-76
2022/05/30 07:17:13;;;;;;;;;;;;;;;;;;5106982;28;19912;-74
2022/05/30 07:19:39;;;;;;;;;;;;;;;;;;5112577;28;20437;-73
2022/05/30 07:22:05;;;;;;;;;;;;;;;;;;5115263;28;19908;-75
2022/05/30 07:24:31;;;;;;;;;;;;;;;;;;5115636;28;19961;-76
2022/05/30 07:26:57;;;;;;;;;;;;;;;;;;5097144;28;19923;-78
2022/05/30 07:29:26;;;;;;;;;;;;;;;;;;5112905;28;19961;-78
2022/05/30 07:31:52;;;;;;;;;;;;;;;;;;5112667;28;19911;-75
2022/05/30 07:34:18;;;;;;;;;;;;;;;;;;5097263;28;20371;-75
2022/05/30 07:36:44;;;;;;;;;;;;;;;;;;5115592;28;19960;-76
2022/05/30 07:39:10;;;;;;;;;;;;;;;;;;5115810;28;19907;-74
2022/05/30 07:41:36;;;;;;;;;;;;;;;;;;5114459;28;19912;-75
2022/05/30 07:44:02;;;;;;;;;;;;;;;;;;5115025;28;19915;-76
2022/05/30 07:46:28;;;;;;;;;;;;;;;;;;5097346;28;20358;-74
2022/05/30 07:48:54;;;;;;;;;;;;;;;;;;5115295;28;19916;-75
2022/05/30 07:51:19;;;;;;;;;;;;;;;;;;5113542;28;19919;-77
2022/05/30 07:53:45;;;;;;;;;;;;;;;;;;5114060;28;19958;-77
2022/05/30 07:56:11;;;;;;;;;;;;;;;;;;5114511;28;19916;-75
2022/05/30 07:58:37;;;;;;;;;;;;;;;;;;5094390;28;19915;-75
2022/05/30 08:01:03;;;;;;;;;;;;;;;;;;5115197;28;19911;-77
2022/05/30 08:03:29;;;;;;;;;;;;;;;;;;5114824;28;19912;-75
2022/05/30 08:05:55;;;;;;;;;;;;;;;;;;5114019;28;20399;-74
2022/05/30 08:08:21;;;;;;;;;;;;;;;;;;5115793;28;19960;-76
2022/05/30 08:10:47;;;;;;;;;;;;;;;;;;5112609;28;19911;-76
2022/05/30 08:13:13;;;;;;;;;;;;;;;;;;5115042;28;20296;-77
2022/05/30 08:15:39;;;;;;;;;;;;;;;;;;5115021;28;19908;-76
2022/05/30 08:18:05;;;;;;;;;;;;;;;;;;5115153;28;19907;-75
2022/05/30 08:20:31;;;;;;;;;;;;;;;;;;5112459;28;19933;-74
2022/05/30 08:22:57;;;;;;;;;;;;;;;;;;5096164;28;20036;-78
2022/05/30 08:25:23;;;;;;;;;;;;;;;;;;5114594;28;19962;-77
2022/05/30 08:27:49;;;;;;;;;;;;;;;;;;5114997;28;19914;-76
2022/05/30 08:30:16;;;;;;;;;;;;;;;;;;5114532;28;19912;-75
2022/05/30 08:32:41;;;;;;;;;;;;;;;;;;5112258;28;19961;-78
2022/05/30 08:35:07;;;;;;;;;;;;;;;;;;5112844;28;19912;-75
2022/05/30 08:37:33;;;;;;;;;;;;;;;;;;5096500;28;20321;-76
2022/05/30 08:42:43;;;;;;;;;;;;;;;;;;5111127;28;20018;-73
2022/05/30 08:45:09;;;;;;;;;;;;;;;;;;5114727;28;19954;-78
2022/05/30 08:47:35;;;;;;;;;;;;;;;;;;5112093;28;19912;-77
2022/05/30 08:50:01;;;;;;;;;;;;;;;;;;5114349;28;20355;-78
2022/05/30 08:52:27;;;;;;;;;;;;;;;;;;5113427;28;19919;-73
2022/05/30 08:54:53;;;;;;;;;;;;;;;;;;5096033;28;19951;-75
2022/05/30 08:57:19;;;;;;;;;;;;;;;;;;5114309;28;19908;-78
2022/05/30 08:59:45;;;;;;;;;;;;;;;;;;5114188;28;20432;-78
2022/05/30 09:02:11;;;;;;;;;;;;;;;;;;5111819;28;20013;-79
2022/05/30 09:04:36;;;;;;;;;;;;;;;;;;5095885;28;19908;-80
2022/05/30 09:07:02;;;;;;;;;;;;;;;;;;5112199;28;19954;-79
2022/05/30 09:09:28;;;;;;;;;;;;;;;;;;5114375;28;19960;-75
2022/05/30 09:11:54;;;;;;;;;;;;;;;;;;5114196;28;20327;-77
2022/05/30 09:14:20;;;;;;;;;;;;;;;;;;5114318;28;19915;-75
2022/05/30 09:16:46;;;;;;;;;;;;;;;;;;5111900;28;19973;-77
2022/05/30 09:19:12;;;;;;;;;;;;;;;;;;5113763;28;19912;-77
2022/05/30 09:21:38;;;;;;;;;;;;;;;;;;5111659;28;19957;-78
2022/05/30 09:24:04;;;;;;;;;;;;;;;;;;5114107;28;19980;-79
2022/05/30 09:26:32;;;;;;;;;;;;;;;;;;5092223;28;20439;-76
2022/05/30 09:28:58;;;;;;;;;;;;;;;;;;5092091;28;20003;-78
2022/05/30 09:31:24;;;;;;;;;;;;;;;;;;5089119;28;20442;-80
2022/05/30 09:33:50;;;;;;;;;;;;;;;;;;5091402;28;19912;-76
2022/05/30 09:36:18;;;;;;;;;;;;;;;;;;5093790;28;19912;-74
2022/05/30 09:38:45;;;;;;;;;;;;;;;;;;5091379;28;20265;-75
2022/05/30 09:41:11;;;;;;;;;;;;;;;;;;5093505;28;20400;-78
2022/05/30 09:43:37;;;;;;;;;;;;;;;;;;5094058;28;19995;-77
2022/05/30 09:46:02;;;;;;;;;;;;;;;;;;5093751;28;19908;-77
2022/05/30 09:48:28;;;;;;;;;;;;;;;;;;5090290;28;20433;-78
2022/05/30 09:50:56;;;;;;;;;;;;;;;;;;5093369;28;19916;-78
2022/05/30 09:53:22;;;;;;;;;;;;;;;;;;5092028;28;19908;-77
2022/05/30 09:55:48;;;;;;;;;;;;;;;;;;5095473;28;19916;-76
2022/05/30 09:58:14;;;;;;;;;;;;;;;;;;5096172;28;19909;-78
2022/05/30 10:00:40;;;;;;;;;;;;;;;;;;5097077;28;20257;-76
2022/05/30 10:03:07;;;;;;;;;;;;;;;;;;5094824;28;19909;-76
2022/05/30 10:05:33;;;;;;;;;;;;;;;;;;5097448;28;19919;-76
2022/05/30 10:07:59;;;;;;;;;;;;;;;;;;5095644;28;19908;-76
2022/05/30 10:10:24;;;;;;;;;;;;;;;;;;5096566;28;20292;-75
2022/05/30 10:12:50;;;;;;;;;;;;;;;;;;5097181;28;19916;-73
2022/05/30 10:15:16;;;;;;;;;;;;;;;;;;5096891;28;20368;-75
2022/05/30 10:17:42;;;;;;;;;;;;;;;;;;5095745;28;19915;-75
2022/05/30 10:20:08;;;;;;;;;;;;;;;;;;5095762;28;20339;-73
2022/05/30 10:28:15;;;;;;;;;;;;;;;;;;5114933;28;19991;-72
2022/05/30 10:30:41;;;;;;;;;;;;;;;;;;5116919;28;19984;-76
2022/05/30 10:33:07;;;;;;;;;;;;;;;;;;5114372;28;20376;-72
2022/05/30 10:35:33;;;;;;;;;;;;;;;;;;5116018;28;19916;-72
2022/05/30 10:37:59;;;;;;;;;;;;;;;;;;5114980;28;19914;-72
2022/05/30 10:40:27;;;;;;;;;;;;;;;;;;5115316;28;19914;-72
2022/05/30 10:42:53;;;;;;;;;;;;;;;;;;5115071;28;19908;-73
2022/05/30 10:45:18;;;;;;;;;;;;;;;;;;5097858;28;19953;-73
2022/05/30 10:47:45;;;;;;;;;;;;;;;;;;5115986;28;19987;-72
2022/05/30 10:50:11;;;;;;;;;;;;;;;;;;5115972;28;19922;-72
2022/05/30 10:52:37;;;;;;;;;;;;;;;;;;5116135;28;20335;-72
2022/05/30 10:55:03;;;;;;;;;;;;;;;;;;5116454;28;19908;-72
2022/05/30 10:57:29;;;;;;;;;;;;;;;;;;5116909;28;20280;-73
2022/05/30 10:59:55;;;;;;;;;;;;;;;;;;5116584;28;19907;-72
2022/05/30 11:02:22;;;;;;;;;;;;;;;;;;5098051;28;19918;-72
2022/05/30 11:04:48;;;;;;;;;;;;;;;;;;5116227;28;20307;-71
2022/05/30 11:07:14;;;;;;;;;;;;;;;;;;5115830;28;19915;-72
2022/05/30 11:09:40;;;;;;;;;;;;;;;;;;5116306;28;19912;-73
2022/05/30 11:12:06;;;;;;;;;;;;;;;;;;5116392;28;19908;-73
2022/05/30 11:14:32;;;;;;;;;;;;;;;;;;5116006;28;20015;-73
2022/05/30 11:16:58;;;;;;;;;;;;;;;;;;5116571;28;20002;-73
2022/05/30 11:19:24;;;;;;;;;;;;;;;;;;5097596;28;19955;-73
2022/05/30 11:21:50;;;;;;;;;;;;;;;;;;5116140;28;19907;-72
2022/05/30 11:24:15;;;;;;;;;;;;;;;;;;5116111;28;20371;-72
2022/05/30 11:26:42;;;;;;;;;;;;;;;;;;5115477;28;19924;-72
2022/05/30 11:29:07;;;;;;;;;;;;;;;;;;5115624;28;20367;-72
2022/05/30 11:31:33;;;;;;;;;;;;;;;;;;5097367;28;19907;-72
2022/05/30 11:33:59;;;;;;;;;;;;;;;;;;5116186;28;19908;-73
2022/05/30 11:36:25;;;;;;;;;;;;;;;;;;5115872;28;19994;-72
2022/05/30 11:38:51;;;;;;;;;;;;;;;;;;5116127;28;19947;-73
2022/05/30 11:41:17;;;;;;;;;;;;;;;;;;5097282;28;19912;-72
2022/05/30 11:43:43;;;;;;;;;;;;;;;;;;5115700;28;19908;-73
2022/05/30 11:46:09;;;;;;;;;;;;;;;;;;5115632;28;19907;-72
2022/05/30 11:48:35;;;;;;;;;;;;;;;;;;5115836;28;20002;-72
2022/05/30 11:51:01;;;;;;;;;;;;;;;;;;5115259;28;19912;-72
2022/05/30 11:53:27;;;;;;;;;;;;;;;;;;5115222;28;19912;-72
2022/05/30 11:55:52;;;;;;;;;;;;;;;;;;5096881;28;19915;-73
2022/05/30 11:58:18;;;;;;;;;;;;;;;;;;5115419;28;19908;-72
2022/05/30 12:00:45;;;;;;;;;;;;;;;;;;5115046;28;19995;-72
2022/05/30 12:03:11;;;;;;;;;;;;;;;;;;5115309;28;19934;-72
2022/05/30 12:05:37;;;;;;;;;;;;;;;;;;5115269;28;19908;-73
2022/05/30 12:08:03;;;;;;;;;;;;;;;;;;5110748;28;19912;-77
2022/05/30 12:10:28;;;;;;;;;;;;;;;;;;5114842;28;19911;-77
2022/05/30 12:12:54;;;;;;;;;;;;;;;;;;5095312;28;19964;-76
2022/05/30 12:15:20;;;;;;;;;;;;;;;;;;5114707;28;19915;-75
2022/05/30 12:23:48;;;;;;;;;;;;;;;;;;5115215;28;19947;-75
2022/05/30 12:26:01;;;;;;;;;;;;;;;;;;5114570;28;19930;-76
2022/05/30 12:28:28;;;;;;;;;;;;;;;;;;5096233;28;20041;-74
2022/05/30 12:30:54;;;;;;;;;;;;;;;;;;5096395;28;19954;-76
2022/05/30 12:33:20;;;;;;;;;;;;;;;;;;5112051;28;19912;-74
2022/05/30 12:35:45;;;;;;;;;;;;;;;;;;5114459;28;19908;-75
2022/05/30 12:38:13;;;;;;;;;;;;;;;;;;5114732;28;19966;-75
2022/05/30 12:40:39;;;;;;;;;;;;;;;;;;5114405;28;19908;-74
2022/05/30 12:43:08;;;;;;;;;;;;;;;;;;5093463;28;19919;-77
2022/05/30 12:45:34;;;;;;;;;;;;;;;;;;5095204;28;19912;-76
2022/05/30 12:48:00;;;;;;;;;;;;;;;;;;5114286;28;19915;-74
2022/05/30 12:50:26;;;;;;;;;;;;;;;;;;5112290;28;19939;-75
2022/05/30 12:52:52;;;;;;;;;;;;;;;;;;5114286;28;20368;-76
2022/05/30 12:55:18;;;;;;;;;;;;;;;;;;5111632;28;20016;-76
2022/05/30 12:57:44;;;;;;;;;;;;;;;;;;5095593;28;19908;-75
2022/05/30 13:00:14;;;;;;;;;;;;;;;;;;5111807;28;19933;-74
2022/05/30 13:02:40;;;;;;;;;;;;;;;;;;5113791;28;20296;-77
2022/05/30 13:05:06;;;;;;;;;;;;;;;;;;5114126;28;19907;-71
2022/05/30 13:07:32;;;;;;;;;;;;;;;;;;5113028;28;20419;-74
2022/05/30 13:09:58;;;;;;;;;;;;;;;;;;5113998;28;19955;-75
2022/05/30 13:12:23;;;;;;;;;;;;;;;;;;5111679;28;19914;-78
2022/05/30 13:14:49;;;;;;;;;;;;;;;;;;5114223;28;19969;-73
2022/05/30 13:17:15;;;;;;;;;;;;;;;;;;5095674;28;20006;-75
2022/05/30 13:19:41;;;;;;;;;;;;;;;;;;5114103;28;19912;-78
2022/05/30 13:22:07;;;;;;;;;;;;;;;;;;5114035;28;19915;-76
2022/05/30 13:24:33;;;;;;;;;;;;;;;;;;5094505;28;19912;-74
2022/05/30 13:26:59;;;;;;;;;;;;;;;;;;5112942;28;19927;-77
2022/05/30 13:29:25;;;;;;;;;;;;;;;;;;5115287;28;19912;-78
2022/05/30 13:31:51;;;;;;;;;;;;;;;;;;5099758;28;19908;-77
2022/05/30 13:34:17;;;;;;;;;;;;;;;;;;5097719;28;19912;-75
2022/05/30 13:36:43;;;;;;;;;;;;;;;;;;5098671;28;19955;-73
2022/05/30 13:39:09;;;;;;;;;;;;;;;;;;5117671;28;19998;-73
2022/05/30 13:41:36;;;;;;;;;;;;;;;;;;5117882;28;20355;-76
2022/05/30 13:44:01;;;;;;;;;;;;;;;;;;5117859;28;19912;-75
2022/05/30 13:46:27;;;;;;;;;;;;;;;;;;5117790;28;19995;-74
2022/05/30 13:48:54;;;;;;;;;;;;;;;;;;5117440;28;20379;-72
2022/05/30 13:51:21;;;;;;;;;;;;;;;;;;5117367;28;19939;-75
2022/05/30 13:53:47;;;;;;;;;;;;;;;;;;5099228;28;20359;-76
2022/05/30 13:56:13;;;;;;;;;;;;;;;;;;5118095;28;19975;-75
2022/05/30 13:58:39;;;;;;;;;;;;;;;;;;5117851;28;19907;-76
2022/05/30 14:01:05;;;;;;;;;;;;;;;;;;5116993;28;19915;-75
2022/05/30 14:03:31;;;;;;;;;;;;;;;;;;5113872;28;20010;-75
2022/05/30 14:05:57;;;;;;;;;;;;;;;;;;5097042;28;19942;-78
2022/05/30 14:08:23;;;;;;;;;;;;;;;;;;5113526;28;19912;-77
2022/05/30 14:10:48;;;;;;;;;;;;;;;;;;5113350;28;19958;-75
2022/05/30 14:13:14;;;;;;;;;;;;;;;;;;5093410;28;19912;-75
2022/05/30 14:15:40;;;;;;;;;;;;;;;;;;5096525;28;19909;-75
2022/05/30 14:18:06;;;;;;;;;;;;;;;;;;5116279;28;20269;-74
2022/05/30 14:20:32;;;;;;;;;;;;;;;;;;5099507;28;19908;-74
2022/05/30 14:22:58;;;;;;;;;;;;;;;;;;5116302;28;19918;-77
2022/05/30 14:25:24;;;;;;;;;;;;;;;;;;5116812;28;19998;-78
2022/05/30 14:27:50;;;;;;;;;;;;;;;;;;5115077;28;19912;-77
2022/05/30 14:30:16;;;;;;;;;;;;;;;;;;5116513;28;20336;-76
2022/05/30 14:32:42;;;;;;;;;;;;;;;;;;5112465;28;19915;-78
2022/05/30 14:35:08;;;;;;;;;;;;;;;;;;5095086;28;19916;-76
2022/05/30 14:37:34;;;;;;;;;;;;;;;;;;5098156;28;19908;-78
2022/05/30 14:40:03;;;;;;;;;;;;;;;;;;5096592;28;20295;-75
2022/05/30 14:42:30;;;;;;;;;;;;;;;;;;5102488;28;20463;-78
2022/05/30 14:44:57;;;;;;;;;;;;;;;;;;5108324;28;20372;-75
2022/05/30 14:47:23;;;;;;;;;;;;;;;;;;5090393;28;20326;-77
2022/05/30 14:49:50;;;;;;;;;;;;;;;;;;5096654;28;19965;-75
2022/05/30 14:52:16;;;;;;;;;;;;;;;;;;5096088;28;20350;-75
2022/05/30 14:54:42;;;;;;;;;;;;;;;;;;5096051;28;19954;-75
2022/05/30 14:57:08;;;;;;;;;;;;;;;;;;5095999;28;19909;-75
2022/05/30 14:59:34;;;;;;;;;;;;;;;;;;5095686;28;20027;-76
2022/05/30 15:02:00;;;;;;;;;;;;;;;;;;5096434;28;19922;-74
2022/05/30 15:04:26;;;;;;;;;;;;;;;;;;5096136;28;19908;-75
2022/05/30 15:06:52;;;;;;;;;;;;;;;;;;5094531;28;19912;-75
2022/05/30 15:09:17;;;;;;;;;;;;;;;;;;5095938;28;19919;-74
2022/05/30 15:11:43;;;;;;;;;;;;;;;;;;5094405;28;19965;-76
2022/05/30 15:14:09;;;;;;;;;;;;;;;;;;5096195;28;19908;-74
2022/05/30 15:16:36;;;;;;;;;;;;;;;;;;5095549;28;19915;-73
2022/05/30 15:19:02;;;;;;;;;;;;;;;;;;5095790;28;20007;-79
2022/05/30 15:21:28;;;;;;;;;;;;;;;;;;5095507;28;19944;-73
2022/05/30 15:23:53;;;;;;;;;;;;;;;;;;5095485;28;20001;-75
2022/05/30 15:26:19;;;;;;;;;;;;;;;;;;5095265;28;19920;-75
2022/05/30 15:28:45;;;;;;;;;;;;;;;;;;5095261;28;19962;-76
2022/05/30 15:31:13;;;;;;;;;;;;;;;;;;5095899;28;20334;-76
2022/05/30 15:33:39;;;;;;;;;;;;;;;;;;5095577;28;19908;-73
2022/05/30 15:36:05;;;;;;;;;;;;;;;;;;5095259;28;19964;-74
2022/05/30 15:38:31;;;;;;;;;;;;;;;;;;5095743;28;20368;-71
2022/05/30 15:40:57;;;;;;;;;;;;;;;;;;5095400;28;19915;-73
2022/05/30 15:43:23;;;;;;;;;;;;;;;;;;5095145;28;20053;-75
2022/05/30 15:45:50;;;;;;;;;;;;;;;;;;5095064;28;19908;-74
2022/05/30 15:48:17;;;;;;;;;;;;;;;;;;5095216;28;19908;-77
2022/05/30 15:50:42;;;;;;;;;;;;;;;;;;5095249;28;19908;-75
2022/05/30 15:58:38;;;;;;;;;;;;;;;;;;5095195;28;19915;-74
2022/05/30 16:01:04;;;;;;;;;;;;;;;;;;5093499;28;20326;-73
2022/05/30 16:03:29;;;;;;;;;;;;;;;;;;5093415;28;19995;-74
2022/05/30 16:05:55;;;;;;;;;;;;;;;;;;5095253;28;20260;-75
2022/05/30 16:08:21;;;;;;;;;;;;;;;;;;5094540;28;20372;-76
2022/05/30 16:10:47;;;;;;;;;;;;;;;;;;5094848;28;19908;-74
2022/05/30 16:13:13;;;;;;;;;;;;;;;;;;5093250;28;20426;-74
2022/05/30 16:15:39;;;;;;;;;;;;;;;;;;5094434;28;19916;-71
2022/05/30 16:18:05;;;;;;;;;;;;;;;;;;5095085;28;20264;-75
2022/05/30 16:20:31;;;;;;;;;;;;;;;;;;5093148;28;19931;-76
2022/05/30 16:22:57;;;;;;;;;;;;;;;;;;5094420;28;19943;-73
2022/05/30 16:25:23;;;;;;;;;;;;;;;;;;5093987;28;19920;-74
2022/05/30 16:27:49;;;;;;;;;;;;;;;;;;5093056;28;19947;-75
2022/05/30 16:30:17;;;;;;;;;;;;;;;;;;5094200;28;20005;-76
2022/05/30 16:32:45;;;;;;;;;;;;;;;;;;5093759;28;20217;-76
2022/05/30 16:35:11;;;;;;;;;;;;;;;;;;5094129;28;20365;-74
2022/05/30 16:37:37;;;;;;;;;;;;;;;;;;5094678;28;20357;-74
2022/05/30 16:40:03;;;;;;;;;;;;;;;;;;5094071;28;19908;-75
2022/05/30 16:42:29;;;;;;;;;;;;;;;;;;5094351;28;19958;-75
2022/05/30 16:44:55;;;;;;;;;;;;;;;;;;5094308;28;19908;-74
2022/05/30 16:47:21;;;;;;;;;;;;;;;;;;5094601;28;19915;-73
2022/05/30 16:49:47;;;;;;;;;;;;;;;;;;5092600;28;19912;-76
2022/05/30 16:52:14;;;;;;;;;;;;;;;;;;5094443;28;19914;-73
2022/05/30 16:54:40;;;;;;;;;;;;;;;;;;5094147;28;19915;-75
2022/05/30 16:57:06;;;;;;;;;;;;;;;;;;5093843;28;19908;-76
2022/05/30 16:59:32;;;;;;;;;;;;;;;;;;5093853;28;20369;-75
2022/05/30 17:01:58;;;;;;;;;;;;;;;;;;5092542;28;19908;-76
2022/05/30 17:04:24;;;;;;;;;;;;;;;;;;5093546;28;19908;-73
2022/05/30 17:06:50;;;;;;;;;;;;;;;;;;5093807;28;20327;-73
2022/05/30 17:09:16;;;;;;;;;;;;;;;;;;5094202;28;19966;-75
2022/05/30 17:11:42;;;;;;;;;;;;;;;;;;5093755;28;19912;-73